• Join FlightAware (Why Join?)
  • Login
  • US Flag 
01:42AM EDT


 

Airport Tracker/Info


-or-


 

Live Flight TrackerFlight Track Log ✈ DAL6234 ✈ 02-Sep-2013 ✈ KLGA - KSYR

Flight Track Log - Related Links

Times and Time Zones

All times are in EDT time to prevent confusion due to time zone crossing. See the DAL6234 flight status page for this flight to view local times or setup timezone preferences in your user account.

Time Position Orientation Groundspeed Altitude Reporting Facility
EDT Latitude Longitude Course Direction KTS MPH feet Rate Location/Type
06:04PM 40.7500 -73.8000 37° Northeast 190 219 2,400  Level New York TRACON
06:05PM 40.8000 -73.7500 37° Northeast 238 274 5,200 2,520 Climbing New York TRACON
06:06PM 40.8667 -73.8167 323° Northwest 277 319 7,500 2,460 Climbing New York TRACON
06:07PM 40.9000 -73.8833 303° West 281 323 9,900 1,200 Climbing New York TRACON
06:08PM 40.9500 -73.9833 304° West 273 314 10,000  Climbing New York TRACON
06:09PM 41.0000 -74.0500 315° West 275 316 10,000  Level New York TRACON
06:10PM 41.0500 -74.1333 309° West 279 321 10,000  Level New York TRACON
06:11PM 41.1000 -74.2000 315° West 273 314 10,000  Level New York TRACON
06:12PM 41.1500 -74.2833 309° West 274 315 10,000  Level New York TRACON
06:13PM 41.2167 -74.3500 323° Northwest 285 328 10,000  Level New York TRACON
06:14PM 41.2667 -74.4167 315° West 291 335 10,000  Level New York TRACON
06:16PM 41.3462 -74.5079 314° West  Level FlightAware Approximate
06:20PM 41.5544 -74.8847 301° West 289 333 10,000  Level New York Center
06:21PM 41.5992 -74.9764 303° West 289 333 10,000  Level New York Center
06:22PM 41.6358 -75.0508 303° West 283 326 10,000  Level New York Center
06:23PM 41.6278 -75.0353 301° West  Level FlightAware Approximate
06:23PM 41.6844 -75.1483 304° West 283 326 10,000  Level New York Center
06:24PM 41.6636 -75.1150 301° West  Level FlightAware Approximate
06:24PM 41.7269 -75.2344 303° West 283 326 10,000  Level New York Center
06:25PM 41.7675 -75.3206 302° West 283 326 10,000  Level New York Center
06:26PM 41.7933 -75.4031 293° West 275 316 10,000  Level New York Center
06:27PM 41.8167 -75.5019 288° West 275 316 10,000  Level New York Center
06:28PM 41.8522 -75.5992 296° West 269 310 10,000  Level New York Center
06:29PM 41.8967 -75.6806 306° West 269 310 10,000  Level New York Center
06:30PM 41.9433 -75.7619 308° West 276 318 10,000  Level New York Center
06:31PM 41.9878 -75.8436 306° West 281 323 10,000  Level New York Center
06:32PM 42.0364 -75.9256 309° West 281 323 10,000  Level New York Center
06:33PM 42.0828 -76.0072 307° West 281 323 10,000  Level New York Center
06:34PM 42.1292 -76.0892 307° West 281 323 10,000  Level New York Center
06:35PM 42.1981 -76.1311 336° Northwest 271 312 10,000  Level New York Center
06:36PM 42.2947 -76.1231 North 315 362 10,000  Level Boston Center
06:37PM 42.3764 -76.1139 North 310 357 10,000  Level Boston Center
06:38PM 42.4622 -76.1047 North 310 357 10,000  Level Boston Center
06:39PM 42.5458 -76.0956 North 312 359 10,000 -120 Level Boston Center
06:40PM 42.6333 -76.0981 359° North 309 356 9,800 -780 Descending Boston Center
06:41PM 42.7097 -76.1222 347° North 284 327 8,500 -1,500 Descending Boston Center
06:42PM 42.7861 -76.1439 348° North 274 315 6,800 -1,740 Descending Boston Center
06:43PM 42.8686 -76.1742 345° North 267 307 4,900 -1,380 Descending Boston Center
06:44PM 42.9286 -76.1892 350° North 259 298 4,100 -720 Descending Boston Center
06:45PM 42.9967 -76.2106 347° North 226 260 3,600 -660 Descending Boston Center
06:46PM 43.0397 -76.2331 339° North 183 211 2,900 -720 Descending Boston Center
06:47PM 43.0767 -76.2467 345° North 129 148 2,300 -660 Descending Boston Center
06:48PM 43.1050 -76.2086 44° Northeast 146 168 1,600 -720 Descending Boston Center
06:49PM 43.1069 -76.1547 87° East 153 176 900 -780 Descending Boston Center